Time;durP1;ratioP1;P1;durP2;ratioP2;P2;SDS_P1;SDS_P2;PMS_P1;PMS_P2;Temp;Humidity;BMP_temperature;BMP_pressure;BME280_temperature;BME280_humidity;BME280_pressure;Samples;Min_cycle;Max_cycle;Signal;HPM_P1;HPM_P2
2022/09/03 00:01:03;;;;;;;9.40;8.40;;;32.60;61.30;;;;;;5084746;28;20450;-65
2022/09/03 00:03:41;;;;;;;9.37;8.40;;;32.60;62.50;;;;;;5084578;28;20497;-65
2022/09/03 00:06:16;;;;;;;11.17;9.53;;;32.60;62.90;;;;;;5084055;28;20446;-65
2022/09/03 00:08:58;;;;;;;12.27;10.23;;;32.70;60.70;;;;;;5084473;28;20455;-65
2022/09/03 00:11:33;;;;;;;11.30;8.20;;;32.70;60.80;;;;;;5084496;28;20817;-65
2022/09/03 00:14:08;;;;;;;9.07;8.17;;;32.60;61.50;;;;;;5084176;28;20956;-65
2022/09/03 00:16:50;;;;;;;9.47;8.57;;;32.70;59.40;;;;;;5084289;28;20438;-65
2022/09/03 00:19:25;;;;;;;8.57;7.50;;;32.50;61.00;;;;;;5084432;28;20903;-65
2022/09/03 00:21:59;;;;;;;10.27;9.17;;;32.10;64.30;;;;;;5083843;28;20426;-65
2022/09/03 00:24:37;;;;;;;9.07;8.20;;;32.20;63.20;;;;;;5084103;28;20463;-65
2022/09/03 00:27:13;;;;;;;9.90;8.90;;;32.10;67.40;;;;;;5084056;28;20449;-65
2022/09/03 00:29:50;;;;;;;10.07;8.73;;;32.10;67.60;;;;;;5083880;28;20447;-65
2022/09/03 00:32:38;;;;;;;9.70;8.57;;;32.10;68.40;;;;;;5084003;28;20976;-65
2022/09/03 00:35:15;;;;;;;10.23;9.23;;;31.70;69.70;;;;;;5084085;28;20450;-65
2022/09/03 00:37:46;;;;;;;9.57;8.20;;;31.60;69.00;;;;;;5083326;28;20427;-66
2022/09/03 00:40:33;;;;;;;8.70;7.80;;;31.50;71.70;;;;;;5084082;28;20450;-65
2022/09/03 00:43:10;;;;;;;10.03;9.03;;;31.20;72.00;;;;;;5083357;28;20819;-65
2022/09/03 00:45:51;;;;;;;10.50;8.80;;;31.00;72.80;;;;;;5083871;28;20449;-65
2022/09/03 00:48:25;;;;;;;9.70;7.33;;;30.80;73.10;;;;;;5083693;28;20456;-65
2022/09/03 00:51:18;;;;;;;9.50;8.60;;;30.70;74.40;;;;;;5082990;28;20571;-65
2022/09/03 00:54:00;;;;;;;8.67;7.53;;;30.60;76.60;;;;;;5083110;28;20453;-65
2022/09/03 00:56:41;;;;;;;8.60;7.80;;;30.50;78.50;;;;;;5083659;28;21020;-65
2022/09/03 00:59:25;;;;;;;9.40;7.37;;;30.40;78.50;;;;;;5083728;28;20441;-66
2022/09/03 01:02:05;;;;;;;10.73;7.47;;;30.20;79.40;;;;;;5083363;28;20462;-65
2022/09/03 01:04:46;;;;;;;8.83;6.30;;;30.10;79.40;;;;;;5083731;28;20476;-65
2022/09/03 01:07:26;;;;;;;8.97;6.63;;;30.00;81.00;;;;;;5082869;28;20454;-65
2022/09/03 01:10:10;;;;;;;7.57;6.67;;;29.90;80.40;;;;;;5083376;28;20455;-65
2022/09/03 01:12:53;;;;;;;6.50;5.90;;;29.80;81.20;;;;;;5083221;28;20458;-65
2022/09/03 01:15:31;;;;;;;7.03;6.33;;;29.60;81.40;;;;;;5083303;28;20457;-65
2022/09/03 01:18:17;;;;;;;5.43;4.80;;;29.40;81.90;;;;;;5083237;28;20453;-65
2022/09/03 01:20:59;;;;;;;7.80;6.40;;;29.20;82.70;;;;;;5082495;28;20459;-65
2022/09/03 01:24:06;;;;;;;7.30;5.60;;;29.20;84.10;;;;;;5083175;28;20481;-65
2022/09/03 01:26:53;;;;;;;5.50;5.00;;;29.10;83.50;;;;;;5077852;28;20448;-65
2022/09/03 01:29:31;;;;;;;6.37;5.60;;;29.10;83.50;;;;;;5083286;28;20436;-65
2022/09/03 01:32:07;;;;;;;5.53;4.87;;;28.90;84.60;;;;;;5083083;28;20446;-65
2022/09/03 01:34:53;;;;;;;6.17;5.10;;;28.90;84.40;;;;;;5083077;28;20448;-65
2022/09/03 01:37:35;;;;;;;4.90;4.40;;;28.70;84.40;;;;;;5082242;28;20932;-65
2022/09/03 01:40:16;;;;;;;5.13;4.60;;;28.50;82.90;;;;;;5083158;28;20461;-65
2022/09/03 01:42:59;;;;;;;5.60;5.00;;;28.30;84.50;;;;;;5082667;28;20490;-65
2022/09/03 01:45:43;;;;;;;5.90;4.57;;;28.10;85.30;;;;;;5082899;28;20524;-65
2022/09/03 01:48:41;;;;;;;6.00;4.60;;;28.10;85.80;;;;;;5083115;28;20993;-65
2022/09/03 01:51:23;;;;;;;7.17;4.50;;;27.90;86.50;;;;;;5082062;28;20457;-65
2022/09/03 01:54:25;;;;;;;5.33;4.70;;;27.80;87.90;;;;;;5083044;28;20519;-65
2022/09/03 01:57:23;;;;;;;4.57;3.80;;;27.70;87.90;;;;;;5083002;28;20454;-65
2022/09/03 02:00:09;;;;;;;4.30;3.90;;;27.60;87.10;;;;;;5083159;28;20439;-65
2022/09/03 02:02:42;;;;;;;4.57;4.00;;;27.40;87.40;;;;;;5082511;28;20447;-65
2022/09/03 02:05:16;;;;;;;4.23;3.83;;;27.30;88.20;;;;;;5084177;28;20441;-65
2022/09/03 02:07:52;;;;;;;3.90;3.40;;;27.10;87.90;;;;;;5086454;28;20454;-65
2022/09/03 02:10:28;;;;;;;6.87;6.20;;;27.00;88.20;;;;;;5086957;28;20451;-65
2022/09/03 02:13:02;;;;;;;10.83;9.73;;;26.90;89.00;;;;;;5086487;28;20450;-65
2022/09/03 02:15:35;;;;;;;6.27;5.43;;;26.90;88.70;;;;;;5086802;28;20481;-65
2022/09/03 02:18:12;;;;;;;5.10;3.70;;;26.70;90.00;;;;;;5086664;28;20451;-64
2022/09/03 02:20:44;;;;;;;4.57;4.17;;;26.60;90.00;;;;;;5086817;28;20428;-64
2022/09/03 02:23:15;;;;;;;3.77;3.43;;;26.60;90.20;;;;;;5086494;28;20491;-64
2022/09/03 02:25:49;;;;;;;4.53;4.13;;;26.50;90.90;;;;;;5086445;28;20453;-65
2022/09/03 02:28:20;;;;;;;3.70;3.00;;;26.40;90.90;;;;;;5086743;28;20469;-64
2022/09/03 02:30:51;;;;;;;4.17;3.70;;;26.20;91.40;;;;;;5086556;28;20447;-64
2022/09/03 02:33:23;;;;;;;4.70;3.43;;;26.10;92.00;;;;;;5086405;28;20514;-64
2022/09/03 02:35:54;;;;;;;4.33;3.40;;;26.10;92.40;;;;;;5086050;28;20431;-64
2022/09/03 02:38:27;;;;;;;3.73;3.43;;;26.00;92.90;;;;;;5086274;28;20888;-64
2022/09/03 02:40:58;;;;;;;4.33;3.60;;;25.80;93.50;;;;;;5086246;28;20448;-65
2022/09/03 02:43:36;;;;;;;5.00;3.47;;;25.70;93.70;;;;;;5085846;28;20490;-64
2022/09/03 02:46:09;;;;;;;4.67;3.80;;;25.60;93.50;;;;;;5086163;28;20449;-64
2022/09/03 02:48:42;;;;;;;6.20;3.50;;;25.60;93.60;;;;;;5086317;28;20457;-64
2022/09/03 02:51:13;;;;;;;3.33;3.03;;;25.50;94.00;;;;;;5086023;28;20442;-64
2022/09/03 02:53:44;;;;;;;3.13;2.57;;;25.50;94.00;;;;;;5086235;28;20487;-64
2022/09/03 02:56:15;;;;;;;3.70;3.37;;;25.40;94.10;;;;;;5086066;28;20450;-64
2022/09/03 02:58:46;;;;;;;3.20;2.90;;;25.30;94.60;;;;;;5086060;28;20452;-64
2022/09/03 03:01:17;;;;;;;3.27;2.70;;;25.10;94.80;;;;;;5085978;28;20499;-64
2022/09/03 03:03:54;;;;;;;4.47;3.97;;;25.00;95.40;;;;;;5085612;28;20489;-64
2022/09/03 03:06:25;;;;;;;3.47;3.00;;;24.80;95.90;;;;;;5085463;28;20447;-64
2022/09/03 03:08:56;;;;;;;2.93;2.67;;;24.80;96.20;;;;;;5086022;28;20440;-64
2022/09/03 03:11:27;;;;;;;3.93;3.07;;;24.60;96.30;;;;;;5085725;28;20464;-64
2022/09/03 03:13:58;;;;;;;2.33;2.13;;;24.50;96.60;;;;;;5085489;28;20445;-64
2022/09/03 03:16:29;;;;;;;3.20;2.67;;;24.40;96.60;;;;;;5085030;28;20459;-64
2022/09/03 03:19:02;;;;;;;2.40;2.20;;;24.20;96.70;;;;;;5085823;28;20437;-64
2022/09/03 03:21:32;;;;;;;2.80;2.60;;;24.10;97.20;;;;;;5085208;28;20818;-64
2022/09/03 03:24:04;;;;;;;3.07;2.50;;;24.10;97.10;;;;;;5085142;28;20489;-64
2022/09/03 03:26:35;;;;;;;3.00;2.17;;;23.90;97.20;;;;;;5085287;28;20554;-64
2022/09/03 03:29:06;;;;;;;2.10;1.90;;;23.80;97.60;;;;;;5085500;28;20820;-65
2022/09/03 03:31:38;;;;;;;2.43;2.13;;;23.70;98.00;;;;;;5085320;28;21033;-64
2022/09/03 03:34:10;;;;;;;3.67;3.10;;;23.50;98.20;;;;;;5085255;28;20478;-65
2022/09/03 03:36:41;;;;;;;2.77;2.20;;;23.40;98.50;;;;;;5084764;28;20432;-64
2022/09/03 03:39:12;;;;;;;2.93;2.27;;;23.30;98.70;;;;;;5085328;28;20562;-64
2022/09/03 03:41:42;;;;;;;2.10;1.90;;;23.20;98.90;;;;;;5084782;28;20474;-64
2022/09/03 03:44:14;;;;;;;3.50;2.13;;;23.10;99.40;;;;;;5084566;28;20499;-64
2022/09/03 03:46:45;;;;;;;2.70;2.10;;;23.00;99.60;;;;;;5084995;28;20443;-64
2022/09/03 03:49:17;;;;;;;2.77;2.30;;;22.80;99.90;;;;;;5084964;28;20424;-65
2022/09/03 03:51:48;;;;;;;2.07;1.80;;;22.70;99.90;;;;;;5084681;28;20550;-64
2022/09/03 03:54:19;;;;;;;2.57;1.90;;;22.70;99.90;;;;;;5084854;28;20534;-63
2022/09/03 03:56:50;;;;;;;2.03;1.70;;;22.50;99.90;;;;;;5084692;28;20456;-64
2022/09/03 03:59:24;;;;;;;2.20;2.00;;;22.40;99.90;;;;;;5084882;28;20439;-64
2022/09/03 04:01:56;;;;;;;2.30;2.10;;;22.20;99.90;;;;;;5084440;28;20459;-64
2022/09/03 04:04:28;;;;;;;2.10;1.70;;;22.20;99.90;;;;;;5084344;28;20519;-64
2022/09/03 04:06:59;;;;;;;2.43;2.13;;;22.10;99.90;;;;;;5084169;28;20444;-64
2022/09/03 04:09:30;;;;;;;4.73;2.80;;;22.10;99.90;;;;;;5084532;28;20440;-63
2022/09/03 04:12:02;;;;;;;2.57;2.37;;;22.00;99.90;;;;;;5084429;28;20454;-64
2022/09/03 04:14:33;;;;;;;2.10;1.80;;;22.00;99.90;;;;;;5084080;28;20447;-64
2022/09/03 04:17:04;;;;;;;3.00;2.60;;;21.90;99.90;;;;;;5084359;28;20554;-64
2022/09/03 04:19:37;;;;;;;2.60;2.33;;;21.80;99.90;;;;;;5084365;28;20435;-64
2022/09/03 04:22:08;;;;;;;2.77;2.10;;;21.70;99.90;;;;;;5083917;28;20428;-64
2022/09/03 04:24:38;;;;;;;2.47;2.00;;;21.60;99.90;;;;;;5083810;28;20530;-64
2022/09/03 04:27:09;;;;;;;2.10;1.90;;;21.50;99.90;;;;;;5083694;28;20558;-64
2022/09/03 04:29:40;;;;;;;1.60;1.50;;;21.30;99.90;;;;;;5083712;28;20568;-64
2022/09/03 04:35:00;;;;;;;2.30;2.10;;;21.20;99.90;;;;;;5083657;28;20422;-64
2022/09/03 04:37:30;;;;;;;2.03;1.63;;;21.10;99.90;;;;;;5083531;28;20446;-64
2022/09/03 04:40:01;;;;;;;1.53;1.13;;;21.00;99.90;;;;;;5084036;28;20587;-64
2022/09/03 04:42:32;;;;;;;1.60;1.50;;;20.90;99.90;;;;;;5083353;28;20931;-64
2022/09/03 04:45:03;;;;;;;1.90;1.80;;;20.80;99.90;;;;;;5083414;28;20462;-64
2022/09/03 04:47:35;;;;;;;2.10;1.63;;;20.70;99.90;;;;;;5083749;28;20455;-64
2022/09/03 04:50:08;;;;;;;1.90;1.37;;;20.70;99.90;;;;;;5083827;28;20447;-65
2022/09/03 04:52:39;;;;;;;1.60;1.50;;;20.50;99.90;;;;;;5083209;28;20441;-64
2022/09/03 04:55:11;;;;;;;2.00;1.80;;;20.50;99.90;;;;;;5083502;28;20451;-64
2022/09/03 04:57:43;;;;;;;1.93;1.53;;;20.50;99.90;;;;;;5083581;28;20429;-64
2022/09/03 05:00:16;;;;;;;1.63;1.37;;;20.40;99.90;;;;;;5083623;28;20455;-64
2022/09/03 05:02:50;;;;;;;1.33;1.23;;;20.30;99.90;;;;;;5083445;28;20453;-64
2022/09/03 05:05:22;;;;;;;2.10;1.50;;;20.20;99.90;;;;;;5083352;28;20485;-65
2022/09/03 05:07:53;;;;;;;1.50;1.40;;;20.10;99.90;;;;;;5083079;28;20461;-64
2022/09/03 05:10:24;;;;;;;1.70;1.37;;;20.00;99.90;;;;;;5083539;28;20429;-64
2022/09/03 05:13:00;;;;;;;1.33;1.23;;;20.00;99.90;;;;;;5083479;28;20451;-65
2022/09/03 05:15:31;;;;;;;1.83;1.50;;;19.90;99.90;;;;;;5083238;28;20422;-65
2022/09/03 05:18:04;;;;;;;1.33;1.23;;;20.00;99.90;;;;;;5083371;28;20450;-65
2022/09/03 05:20:36;;;;;;;1.43;1.07;;;19.90;99.90;;;;;;5083522;28;20443;-65
2022/09/03 05:23:07;;;;;;;1.90;1.60;;;19.80;99.90;;;;;;5083053;28;20407;-64
2022/09/03 05:25:38;;;;;;;1.50;1.40;;;19.70;99.90;;;;;;5083170;28;20484;-65
2022/09/03 05:28:09;;;;;;;1.57;1.30;;;19.70;99.90;;;;;;5083450;28;20454;-65
2022/09/03 05:30:40;;;;;;;1.70;1.33;;;19.70;99.90;;;;;;5083390;28;20951;-64
2022/09/03 05:33:14;;;;;;;1.10;0.97;;;19.60;99.90;;;;;;5083317;28;20459;-65
2022/09/03 05:35:46;;;;;;;1.30;1.20;;;19.60;99.90;;;;;;5082889;28;20451;-64
2022/09/03 05:38:17;;;;;;;1.50;1.20;;;19.50;99.90;;;;;;5083495;28;20448;-65
2022/09/03 05:40:48;;;;;;;1.90;0.87;;;19.40;99.90;;;;;;5083017;28;20421;-64
2022/09/03 05:43:19;;;;;;;1.50;1.03;;;19.30;99.90;;;;;;5082801;28;20457;-64
2022/09/03 05:45:50;;;;;;;1.70;1.23;;;19.20;99.90;;;;;;5083018;28;20487;-65
2022/09/03 05:48:21;;;;;;;1.57;1.33;;;19.10;99.90;;;;;;5083141;28;20460;-65
2022/09/03 05:51:01;;;;;;;2.03;1.00;;;19.10;99.90;;;;;;5082578;28;20509;-65
2022/09/03 05:53:33;;;;;;;1.43;1.17;;;19.10;99.90;;;;;;5083289;28;20448;-65
2022/09/03 05:56:06;;;;;;;0.90;0.87;;;19.00;99.90;;;;;;5083215;28;20446;-65
2022/09/03 05:58:40;;;;;;;1.00;0.87;;;19.00;99.90;;;;;;5083148;28;20455;-65
2022/09/03 06:01:14;;;;;;;1.70;0.97;;;18.90;99.90;;;;;;5083039;28;20422;-65
2022/09/03 06:03:46;;;;;;;2.47;1.20;;;18.90;99.90;;;;;;5083070;28;20461;-65
2022/09/03 06:06:21;;;;;;;1.30;1.03;;;18.80;99.90;;;;;;5082217;28;20637;-64
2022/09/03 06:08:52;;;;;;;0.90;0.80;;;18.80;99.90;;;;;;5083131;28;20838;-66
2022/09/03 06:11:25;;;;;;;1.03;0.77;;;18.80;99.90;;;;;;5083118;28;20729;-64
2022/09/03 06:13:56;;;;;;;1.13;0.97;;;18.80;99.90;;;;;;5082705;28;20430;-64
2022/09/03 06:16:27;;;;;;;1.30;1.20;;;18.80;99.90;;;;;;5082730;28;20443;-64
2022/09/03 06:19:01;;;;;;;1.07;0.97;;;18.70;99.90;;;;;;5082915;28;20422;-64
2022/09/03 06:21:35;;;;;;;1.20;0.90;;;18.60;99.90;;;;;;5082232;28;20439;-64
2022/09/03 06:24:06;;;;;;;1.00;0.90;;;18.60;99.90;;;;;;5082847;28;20431;-65
2022/09/03 06:26:37;;;;;;;1.37;1.13;;;18.60;99.90;;;;;;5082881;28;20487;-65
2022/09/03 06:29:12;;;;;;;1.23;1.13;;;18.50;99.90;;;;;;5082952;28;20511;-65
2022/09/03 06:31:42;;;;;;;1.67;0.90;;;18.60;99.90;;;;;;5082802;28;20422;-64
2022/09/03 06:34:13;;;;;;;0.87;0.87;;;18.50;99.90;;;;;;5082854;28;20478;-64
2022/09/03 06:36:46;;;;;;;0.80;0.80;;;18.60;99.90;;;;;;5082117;28;20833;-65
2022/09/03 06:39:17;;;;;;;1.20;0.90;;;18.70;99.90;;;;;;5082902;28;20425;-65
2022/09/03 06:41:50;;;;;;;2.13;1.10;;;18.70;99.90;;;;;;5082745;28;20406;-64
2022/09/03 06:44:21;;;;;;;1.53;1.07;;;18.80;99.90;;;;;;5082445;28;20485;-64
2022/09/03 06:46:52;;;;;;;1.13;1.00;;;18.70;99.90;;;;;;5082209;28;20563;-64
2022/09/03 06:49:25;;;;;;;1.27;1.13;;;18.80;99.90;;;;;;5082692;28;20537;-64
2022/09/03 06:51:57;;;;;;;0.80;0.70;;;18.80;99.90;;;;;;5083787;28;20910;-64
2022/09/03 06:54:28;;;;;;;1.10;1.00;;;19.00;99.90;;;;;;5086032;28;20439;-64
2022/09/03 06:56:59;;;;;;;1.30;1.20;;;19.00;99.90;;;;;;5086006;28;20438;-65
2022/09/03 06:59:29;;;;;;;1.10;1.00;;;19.10;99.90;;;;;;5086014;28;20436;-64
2022/09/03 07:02:02;;;;;;;1.30;1.00;;;19.00;99.90;;;;;;5085885;28;20955;-64
2022/09/03 07:04:33;;;;;;;1.40;1.00;;;18.90;99.90;;;;;;5086002;28;20447;-65
2022/09/03 07:07:12;;;;;;;1.07;0.83;;;19.00;99.90;;;;;;5085051;28;20540;-64
2022/09/03 07:09:42;;;;;;;4.73;1.00;;;19.00;99.90;;;;;;5086014;28;20428;-65
2022/09/03 07:12:18;;;;;;;1.10;1.00;;;18.90;99.90;;;;;;5085929;28;20511;-64
2022/09/03 07:14:49;;;;;;;1.13;0.90;;;18.80;99.90;;;;;;5085540;28;20448;-64
2022/09/03 07:17:20;;;;;;;1.10;1.00;;;18.90;99.90;;;;;;5085349;28;20455;-64
2022/09/03 07:19:50;;;;;;;0.87;0.77;;;19.00;99.90;;;;;;5085747;28;20437;-64
2022/09/03 07:22:23;;;;;;;1.00;0.80;;;19.10;99.90;;;;;;5084862;28;20433;-64
2022/09/03 07:25:01;;;;;;;1.10;0.90;;;18.90;99.90;;;;;;5085770;28;20435;-65
2022/09/03 07:27:31;;;;;;;1.13;1.03;;;19.00;99.90;;;;;;5085483;28;20494;-64
2022/09/03 07:30:03;;;;;;;0.90;0.90;;;19.00;99.90;;;;;;5085570;28;20444;-64
2022/09/03 07:32:39;;;;;;;1.10;1.00;;;18.90;99.90;;;;;;5085361;28;20454;-64
2022/09/03 07:35:10;;;;;;;0.93;0.93;;;18.90;99.90;;;;;;5085386;28;20422;-64
2022/09/03 07:37:44;;;;;;;1.57;1.00;;;18.80;99.90;;;;;;5084594;28;20422;-64
2022/09/03 07:40:18;;;;;;;0.93;0.93;;;18.80;99.90;;;;;;5085388;28;20424;-65
2022/09/03 07:42:50;;;;;;;1.40;1.07;;;18.80;99.90;;;;;;5085115;28;20476;-64
2022/09/03 07:45:27;;;;;;;1.33;1.10;;;18.80;99.90;;;;;;5085212;28;20413;-64
2022/09/03 07:47:58;;;;;;;0.73;0.73;;;18.90;99.90;;;;;;5084853;28;20494;-64
2022/09/03 07:50:32;;;;;;;1.20;1.00;;;19.00;99.90;;;;;;5085243;28;20511;-65
2022/09/03 07:53:05;;;;;;;2.23;1.13;;;19.00;99.90;;;;;;5084498;28;20440;-65
2022/09/03 07:55:36;;;;;;;1.33;1.03;;;18.90;99.90;;;;;;5085153;28;20443;-64
2022/09/03 07:58:06;;;;;;;1.67;1.00;;;19.00;99.90;;;;;;5084903;28;20432;-64
2022/09/03 08:00:37;;;;;;;1.27;0.80;;;18.90;99.90;;;;;;5084949;28;20430;-64
2022/09/03 08:03:09;;;;;;;2.10;0.93;;;18.80;99.90;;;;;;5084785;28;20546;-64
2022/09/03 08:05:40;;;;;;;0.93;0.93;;;18.80;99.90;;;;;;5084895;28;20566;-64
2022/09/03 08:08:13;;;;;;;1.63;1.13;;;18.80;99.90;;;;;;5084442;28;20491;-64
2022/09/03 08:10:45;;;;;;;1.30;1.20;;;18.90;99.90;;;;;;5084673;28;20425;-64
2022/09/03 08:13:15;;;;;;;1.63;1.10;;;18.90;99.90;;;;;;5084727;28;20446;-64
2022/09/03 08:15:58;;;;;;;1.73;1.20;;;18.90;99.90;;;;;;5084644;28;20426;-64
2022/09/03 08:18:30;;;;;;;1.60;0.97;;;18.90;99.90;;;;;;5084480;28;20443;-64
2022/09/03 08:21:02;;;;;;;1.17;1.10;;;19.00;99.90;;;;;;5083873;28;21127;-65
2022/09/03 08:23:34;;;;;;;1.60;1.10;;;18.80;99.90;;;;;;5084367;28;20926;-64
2022/09/03 08:26:06;;;;;;;1.13;1.07;;;18.80;99.90;;;;;;5084328;28;20784;-64
2022/09/03 08:28:38;;;;;;;1.40;0.97;;;18.80;99.90;;;;;;5084258;28;20459;-64
2022/09/03 08:31:11;;;;;;;1.17;1.00;;;18.70;99.90;;;;;;5084528;28;20541;-64
2022/09/03 08:33:44;;;;;;;1.30;1.20;;;18.70;99.90;;;;;;5084304;28;20475;-64
2022/09/03 08:36:17;;;;;;;1.30;1.20;;;18.80;99.90;;;;;;5083772;28;20459;-64
2022/09/03 08:38:53;;;;;;;1.57;1.20;;;18.80;99.90;;;;;;5083996;28;20451;-64
2022/09/03 08:41:30;;;;;;;1.63;1.20;;;18.70;99.90;;;;;;5084156;28;20448;-64
2022/09/03 08:44:18;;;;;;;2.27;1.40;;;18.70;99.90;;;;;;5083546;28;20777;-65
2022/09/03 08:46:54;;;;;;;1.70;1.20;;;18.70;99.90;;;;;;5084094;28;20464;-64
2022/09/03 08:49:30;;;;;;;2.23;1.67;;;18.70;99.90;;;;;;5084069;28;20485;-64
2022/09/03 08:52:04;;;;;;;2.40;1.93;;;18.70;99.90;;;;;;5083275;28;20447;-64
2022/09/03 08:54:38;;;;;;;1.50;1.00;;;18.60;99.90;;;;;;5083783;28;20418;-64
2022/09/03 08:57:10;;;;;;;2.47;2.10;;;18.60;99.90;;;;;;5083639;28;20421;-64
2022/09/03 08:59:41;;;;;;;1.57;1.40;;;18.60;99.90;;;;;;5083776;28;20453;-64
2022/09/03 09:02:24;;;;;;;2.07;1.60;;;18.60;99.90;;;;;;5083509;28;20813;-65
2022/09/03 09:05:03;;;;;;;1.57;1.33;;;18.60;99.90;;;;;;5083837;28;20422;-64
2022/09/03 09:07:46;;;;;;;1.50;1.10;;;18.70;99.90;;;;;;5083144;28;20491;-64
2022/09/03 09:10:27;;;;;;;1.70;1.03;;;18.70;99.90;;;;;;5083680;28;20572;-64
2022/09/03 09:13:12;;;;;;;1.20;1.10;;;18.60;99.90;;;;;;5083337;28;20443;-64
2022/09/03 09:15:49;;;;;;;1.33;1.23;;;18.50;99.90;;;;;;5082933;28;20455;-64
2022/09/03 09:18:24;;;;;;;1.63;1.03;;;18.60;99.90;;;;;;5083467;28;20502;-64
2022/09/03 09:21:09;;;;;;;1.30;1.20;;;18.70;99.90;;;;;;5082915;28;20426;-65
2022/09/03 09:23:45;;;;;;;1.60;1.30;;;18.70;99.90;;;;;;5083548;28;21441;-64
2022/09/03 09:26:20;;;;;;;2.63;1.63;;;18.70;99.90;;;;;;5083522;28;20421;-64
2022/09/03 09:28:58;;;;;;;1.30;1.20;;;18.70;99.90;;;;;;5083430;28;20464;-64
2022/09/03 09:31:30;;;;;;;1.37;1.03;;;18.60;99.90;;;;;;5083369;28;20483;-64
2022/09/03 09:34:06;;;;;;;2.13;1.43;;;18.50;99.90;;;;;;5083387;28;20459;-64
2022/09/03 09:36:43;;;;;;;1.77;1.43;;;18.60;99.90;;;;;;5082659;28;20904;-64
2022/09/03 09:39:16;;;;;;;2.40;1.00;;;18.60;99.90;;;;;;5083424;28;20531;-64
2022/09/03 09:42:07;;;;;;;1.90;1.20;;;18.60;99.90;;;;;;5083133;28;20501;-64
2022/09/03 09:44:38;;;;;;;1.33;1.23;;;18.60;99.90;;;;;;5082828;28;20479;-65
2022/09/03 09:47:21;;;;;;;0.80;0.80;;;18.60;99.90;;;;;;5083100;28;20441;-64
2022/09/03 09:49:55;;;;;;;1.23;1.13;;;18.60;99.90;;;;;;5083304;28;20451;-64
2022/09/03 09:52:28;;;;;;;1.20;1.10;;;18.70;99.90;;;;;;5082624;28;20422;-64
2022/09/03 09:55:08;;;;;;;1.37;1.27;;;18.60;99.90;;;;;;5083190;28;20414;-64
2022/09/03 09:57:40;;;;;;;1.40;1.30;;;18.70;99.90;;;;;;5082762;28;20965;-64
2022/09/03 10:00:15;;;;;;;2.10;0.87;;;18.60;99.90;;;;;;5083211;28;20539;-64
2022/09/03 10:02:50;;;;;;;1.43;1.27;;;18.60;99.90;;;;;;5083168;28;20423;-65
2022/09/03 10:05:23;;;;;;;1.23;1.00;;;18.60;99.90;;;;;;5083346;28;20413;-65
2022/09/03 10:07:58;;;;;;;1.27;1.17;;;18.60;99.90;;;;;;5082208;28;20516;-65
2022/09/03 10:10:33;;;;;;;1.00;1.00;;;18.60;99.90;;;;;;5082991;28;20447;-65
2022/09/03 10:13:11;;;;;;;1.30;1.10;;;18.60;99.90;;;;;;5082866;28;20457;-65
2022/09/03 10:15:46;;;;;;;1.83;1.70;;;18.60;99.90;;;;;;5082892;28;20461;-65
2022/09/03 10:18:27;;;;;;;1.07;0.93;;;18.60;99.90;;;;;;5082832;28;20421;-65
2022/09/03 10:21:05;;;;;;;1.20;1.10;;;18.60;99.90;;;;;;5082796;28;20430;-64
2022/09/03 10:23:44;;;;;;;1.30;1.20;;;18.70;99.90;;;;;;5083020;28;20413;-64
2022/09/03 10:26:17;;;;;;;1.40;1.00;;;18.70;99.90;;;;;;5083648;28;20425;-65
2022/09/03 10:28:53;;;;;;;1.40;1.30;;;18.60;99.90;;;;;;5086502;28;20521;-65
2022/09/03 10:31:46;;;;;;;1.13;1.00;;;18.60;99.90;;;;;;5086591;28;20830;-64
2022/09/03 10:34:23;;;;;;;1.30;1.20;;;18.60;99.90;;;;;;5086593;28;20451;-64
2022/09/03 10:37:03;;;;;;;1.00;0.90;;;18.50;99.90;;;;;;5085889;28;20456;-64
2022/09/03 10:39:48;;;;;;;1.63;0.90;;;18.50;99.90;;;;;;5086504;28;20441;-64
2022/09/03 10:42:38;;;;;;;1.77;1.60;;;18.50;99.90;;;;;;5086278;28;20507;-64
2022/09/03 10:45:19;;;;;;;1.60;1.50;;;18.50;99.90;;;;;;5086606;28;20414;-64
2022/09/03 10:48:29;;;;;;;0.90;0.87;;;18.50;99.90;;;;;;5086246;28;20487;-64
2022/09/03 10:51:05;;;;;;;1.47;1.37;;;18.60;99.90;;;;;;5086041;28;20435;-64
2022/09/03 10:53:54;;;;;;;1.57;1.47;;;18.50;99.90;;;;;;5086025;28;20451;-64
2022/09/03 10:56:32;;;;;;;1.47;1.33;;;18.60;99.90;;;;;;5086060;28;20429;-65
2022/09/03 10:59:20;;;;;;;1.13;1.00;;;18.70;99.90;;;;;;5086035;28;20429;-64
2022/09/03 11:02:14;;;;;;;0.90;0.90;;;18.50;99.90;;;;;;5085814;28;20472;-63
2022/09/03 11:04:53;;;;;;;1.20;0.90;;;18.60;99.90;;;;;;5085893;28;20422;-64
2022/09/03 11:07:29;;;;;;;0.90;0.63;;;18.70;99.90;;;;;;5085297;28;20414;-64
2022/09/03 11:10:11;;;;;;;1.10;1.00;;;18.70;99.90;;;;;;5085865;28;20422;-65
2022/09/03 11:12:47;;;;;;;1.33;1.20;;;18.60;99.90;;;;;;5085665;28;20430;-65
2022/09/03 11:15:27;;;;;;;1.90;1.40;;;18.50;99.90;;;;;;5085960;28;20440;-65
2022/09/03 11:18:03;;;;;;;1.17;1.07;;;18.60;99.90;;;;;;5085445;28;20455;-64
2022/09/03 11:20:35;;;;;;;2.10;1.57;;;18.50;99.90;;;;;;5085725;28;20428;-64
2022/09/03 11:23:08;;;;;;;1.40;1.23;;;18.60;99.90;;;;;;5084879;28;20466;-64
2022/09/03 11:25:44;;;;;;;1.57;0.90;;;18.50;99.90;;;;;;5085755;28;20485;-64
2022/09/03 11:28:27;;;;;;;1.17;0.93;;;18.50;99.90;;;;;;5085317;28;20471;-65
2022/09/03 11:31:13;;;;;;;3.10;1.80;;;18.50;99.90;;;;;;5085437;28;20427;-65
2022/09/03 11:33:52;;;;;;;1.10;0.90;;;18.50;99.90;;;;;;5085707;28;20547;-64
2022/09/03 11:36:31;;;;;;;2.20;1.20;;;18.50;99.90;;;;;;5084864;28;20474;-64
2022/09/03 11:39:15;;;;;;;1.20;1.10;;;18.40;99.90;;;;;;5085248;28;20462;-64
2022/09/03 11:42:03;;;;;;;1.23;1.13;;;18.50;99.90;;;;;;5085213;28;20846;-65
2022/09/03 11:44:38;;;;;;;1.43;1.33;;;18.50;99.90;;;;;;5085132;28;20454;-64
2022/09/03 11:47:24;;;;;;;1.60;1.07;;;18.50;99.90;;;;;;5085196;28;20414;-64
2022/09/03 11:50:19;;;;;;;1.40;1.00;;;18.50;99.90;;;;;;5085152;28;20847;-65
2022/09/03 11:52:52;;;;;;;2.70;0.93;;;18.50;99.90;;;;;;5084626;28;20422;-65
2022/09/03 11:55:31;;;;;;;0.70;0.67;;;18.50;99.90;;;;;;5085358;28;20411;-65
2022/09/03 11:58:13;;;;;;;0.90;0.70;;;18.50;99.90;;;;;;5085019;28;20507;-65
2022/09/03 12:00:45;;;;;;;0.50;0.50;;;18.60;99.90;;;;;;5085291;28;20761;-64
2022/09/03 12:03:17;;;;;;;0.63;0.63;;;18.60;99.90;;;;;;5084802;28;20418;-65
2022/09/03 12:06:04;;;;;;;1.27;1.03;;;18.50;99.90;;;;;;5084344;28;20426;-64
2022/09/03 12:09:10;;;;;;;1.10;0.70;;;18.50;99.90;;;;;;5084682;28;20544;-65
2022/09/03 12:11:51;;;;;;;0.70;0.63;;;18.50;99.90;;;;;;5076529;28;20450;-65
2022/09/03 12:14:30;;;;;;;0.70;0.70;;;18.60;99.90;;;;;;5084645;28;20429;-65
2022/09/03 12:17:19;;;;;;;0.60;0.60;;;18.50;99.90;;;;;;5084544;28;20447;-64
2022/09/03 12:19:53;;;;;;;0.70;0.50;;;18.50;99.90;;;;;;5084659;28;20876;-65
2022/09/03 12:22:28;;;;;;;1.17;0.53;;;18.50;99.90;;;;;;5084078;28;20420;-64
2022/09/03 12:25:09;;;;;;;0.93;0.73;;;18.50;99.90;;;;;;5084664;28;20921;-64
2022/09/03 12:27:43;;;;;;;0.93;0.40;;;18.50;99.90;;;;;;5084335;28;20443;-64
2022/09/03 12:30:18;;;;;;;0.90;0.73;;;18.50;99.90;;;;;;5084233;28;20497;-64
2022/09/03 12:32:50;;;;;;;0.70;0.70;;;18.60;99.90;;;;;;5084164;28;20447;-65
2022/09/03 12:35:23;;;;;;;0.80;0.80;;;18.60;99.90;;;;;;5084551;28;20433;-65
2022/09/03 12:38:25;;;;;;;0.53;0.40;;;18.50;99.90;;;;;;5084073;28;20410;-65
2022/09/03 12:40:56;;;;;;;0.93;0.40;;;18.60;99.90;;;;;;5083792;28;20418;-66
2022/09/03 12:43:53;;;;;;;0.77;0.67;;;18.50;99.90;;;;;;5083923;28;20471;-64
2022/09/03 12:46:28;;;;;;;0.57;0.40;;;18.50;99.90;;;;;;5084306;28;20523;-64
2022/09/03 12:49:06;;;;;;;0.50;0.40;;;18.60;99.90;;;;;;5083202;28;20604;-64
2022/09/03 12:52:03;;;;;;;0.60;0.60;;;18.50;99.90;;;;;;5083395;28;20422;-64
2022/09/03 12:54:40;;;;;;;0.97;0.87;;;18.50;99.90;;;;;;5083928;28;20483;-65
2022/09/03 12:57:11;;;;;;;0.60;0.60;;;18.50;99.90;;;;;;5083820;28;20450;-64
2022/09/03 12:59:42;;;;;;;0.93;0.77;;;18.50;99.90;;;;;;5083822;28;20474;-65
2022/09/03 13:02:20;;;;;;;0.47;0.43;;;18.50;99.90;;;;;;5083622;28;20447;-65
2022/09/03 13:04:52;;;;;;;0.80;0.70;;;18.50;99.90;;;;;;5083970;28;20822;-64
2022/09/03 13:07:28;;;;;;;1.07;0.80;;;18.50;99.90;;;;;;5083060;28;20531;-64
2022/09/03 13:10:06;;;;;;;1.07;0.63;;;18.50;99.90;;;;;;5083513;28;20461;-64
2022/09/03 13:12:47;;;;;;;0.77;0.50;;;18.50;99.90;;;;;;5083512;28;20486;-64
2022/09/03 13:15:24;;;;;;;0.90;0.60;;;18.50;99.90;;;;;;5083576;28;20451;-64
2022/09/03 13:18:22;;;;;;;0.70;0.60;;;18.50;99.90;;;;;;5083471;28;20542;-65
2022/09/03 13:21:10;;;;;;;0.50;0.50;;;18.40;99.90;;;;;;5082874;28;20455;-64
2022/09/03 13:24:03;;;;;;;0.80;0.80;;;18.40;99.90;;;;;;5083329;28;20414;-65
2022/09/03 13:26:46;;;;;;;1.33;0.60;;;18.30;99.90;;;;;;5083388;28;20402;-65
2022/09/03 13:29:39;;;;;;;0.60;0.60;;;18.30;99.90;;;;;;5083822;28;20483;-64
2022/09/03 13:32:21;;;;;;;0.60;0.50;;;18.30;99.90;;;;;;5083533;28;20421;-64
2022/09/03 13:34:58;;;;;;;0.93;0.70;;;18.30;99.90;;;;;;5083474;28;20481;-64